Aérodrome :
LOGIN :

S'inscrire | Disclaimer

   EN    FR    IT 

 










Légende :    VFR   VFR Marginal   IFR   IFR Intensif   IFR Très Intensif
Visi : 
Plafond : 
>= 8 km
>= 3000ft
5 à 8 km
1000 à 3000 ft
1500m à 5 km
500 à 1000 ft
800 à 1500m
200 à 500 ft
< 800m
< 200 ft
Symboles :   Orages  Brouillard  Fortes neiges  Fortes précipitations  Vent > 20 kt
SIGMETs :   Divers  Orages  Givrage  Turbulence  Onde Orograph.  Cendres Volcan.






- Altitude de l'aérodrome : 1115 ft
- Code IATA : GRZ


LOWG - Graz

DERNIER METAR :
  • 181750Z AUTO 10005KT 070V130 9999 NCD 27/18 Q1015 NOSIG

METARs EXPIRÉS :
  • 181720Z AUTO 11007KT 9999 NCD 27/18 Q1015 NOSIG
  • 181650Z AUTO 14007KT 9999 NCD 28/18 Q1015 NOSIG
  • 181620Z AUTO 16009KT 130V190 9999 NCD 29/18 Q1015 NOSIG
  • 181550Z AUTO 15010KT 9999 NCD 29/17 Q1016 NOSIG
  • 181520Z AUTO 13010KT 9999 NCD 29/16 Q1016 NOSIG
  • 181450Z AUTO 15008KT 9999 NCD 29/17 Q1016 NOSIG
  • 181420Z AUTO 15009KT 110V180 9999 NCD 29/16 Q1016 NOSIG
  • 181350Z AUTO 15008KT 100V190 9999 NCD 29/16 Q1017 NOSIG
  • 181320Z AUTO 15006KT 090V220 9999 NCD 29/16 Q1017 NOSIG

TAF TAF LOWG
Valide du 18 à 18h jusqu'au 19 à 18h UTC


181715Z 1818/1918 VRB05KT CAVOK TX32/1914Z TN16/1903Z
TEMPO 1911/1917 22015KT



MET'MAP, la Météo Aéronautique d'un coup d'oeil ! - Copyright ORBIFLY Décembre 2007 - Disclaimer

ORBIFLY MET'MAP TEAM :

Programmation & Développement : Alexandra Zaïnal
Sur une idée originale de : Baudouin d'Aumeries
Soutien technique & logistique : Manuel Goepfert
Assistance : Marc-Olivier Méhu




SOURCES & CREDITS :

   NOAA